D/T METAR WX W/DIR W/SPE G/SPE TEMP DEWP
6/06/20 10:50 EGYD 060950Z AUTO 25024KT 9999 // BKN012/// 11/09 Q0992 WSW (250°) 27.6mph 11°C 9°C
6/06/20 09:50 EGYD 060850Z AUTO 26023KT 3900 // BKN014/// SCT028/// 09/07 Q0992 W (260°) 26.5mph 9°C 7°C
6/06/20 08:50 EGYD 060750Z AUTO 26022KT 9999 // BKN020/// 08/06 Q0992 W (260°) 25.3mph 8°C 6°C
6/06/20 07:50 EGYD 060650Z AUTO 25024KT 9999 // SCT022/// BKN043/// 08/05 Q0992 WSW (250°) 27.6mph 8°C 5°C
6/06/20 06:50 EGYD 060550Z AUTO 26024KT 9999 // BKN022/// BKN050/// 08/04 Q0992 W (260°) 27.6mph 8°C 4°C
6/06/20 05:50 EGYD 060450Z AUTO 25023KT 9999 // OVC024/// 07/03 Q0992 WSW (250°) 26.5mph 7°C 3°C
6/06/20 04:50 EGYD 060350Z AUTO 25021KT 9999 // BKN024/// BKN029/// 08/03 Q0993 WSW (250°) 24.2mph 8°C 3°C
6/06/20 03:50 EGYD 060250Z AUTO 25023KT 9999 // SCT030/// BKN060/// 08/03 Q0993 WSW (250°) 26.5mph 8°C 3°C
6/06/20 02:50 EGYD 060150Z AUTO 25021KT 9999 // FEW070/// 07/03 Q0993 WSW (250°) 24.2mph 7°C 3°C
6/06/20 01:50 EGYD 060050Z AUTO 25019KT 9999 // NCD 07/03 Q0994 WSW (250°) 21.9mph 7°C 3°C
6/06/20 00:50 EGYD 052350Z AUTO 27018KT 9999 // SCT043/// 08/03 Q0994 W (270°) 20.7mph 8°C 3°C
5/06/20 23:50 EGYD 052250Z AUTO 28022KT 9999 // NCD 08/03 Q0995 W (280°) 25.3mph 8°C 3°C
5/06/20 22:50 EGYD 052150Z AUTO 27019KT 9999 // NCD 09/02 Q0995 W (270°) 21.9mph 9°C 2°C
5/06/20 21:50 EGYD 052050Z AUTO 27018KT 9999 // NCD 09/02 Q0995 W (270°) 20.7mph 9°C 2°C
5/06/20 20:50 EGYD 051950Z AUTO 28017KT 9999 // FEW044/// 11/02 Q0994 W (280°) 19.6mph 11°C 2°C
5/06/20 19:50 EGYD 051850Z AUTO 29016KT 9999 // SCT050/// 12/02 Q0994 WNW (290°) 18.4mph 12°C 2°C
5/06/20 18:50 EGYD 051750Z AUTO 28015KT 9999 // FEW050/// 12/03 Q0994 W (280°) 17.3mph 12°C 3°C
5/06/20 17:50 EGYD 051650Z AUTO 28010KT 9999 // BKN080/// 13/05 Q0994 W (280°) 11.5mph 13°C 5°C
5/06/20 16:50 EGYD 051550Z 28009KT 9999 VCSH FEW020CB BKN060 09/06 Q0995 RMK BLU VCSH W (280°) 10.4mph 9°C 6°C
5/06/20 15:50 EGYD 051450Z 33018KT 9999 FEW020CB 10/05 Q0995 RESHRA TEMPO 6000 SHRA BKN022CB RMK BLU TEMPO WHT NNW (330°) 20.7mph 10°C 5°C
5/06/20 14:50 EGYD 051350Z 29011KT 9999 FEW020CB 13/06 Q0994 RESHRA TEMPO 4000 +SHRA BKN022CB RMK BLU TEMPO WHT WNW (290°) 12.7mph 13°C 6°C
5/06/20 14:06 EGYD 051306Z 31008KT 9999 VCSH FEW025 SCT028CB 09/08 Q0995 TEMPO 6000 SHRA BKN022CB RMK BLU TEMPO WHT VCSH NW (310°) 9.2mph 9°C 8°C
5/06/20 12:50 EGYD 051150Z 30014KT 9999 FEW022CB 13/05 Q0994 TEMPO 6000 SHRA BKN022CB RMK BLU TEMPO WHT WNW (300°) 16.1mph 13°C 5°C
5/06/20 11:50 EGYD 051050Z 29013KT 9999 VCSH FEW022CB SCT250 08/05 Q0995 RESHRA TEMPO 6000 SHRA BKN022CB RMK BLU TEMPO WHT VCSH WNW (290°) 15.0mph 8°C 5°C
5/06/20 11:31 EGYD 051031Z 30013KT 9999 -SHRA SCT027 BKN060 10/05 Q0995 TEMPO 6000 SHRA BKN022CB RMK BLU TEMPO WHT -SHRA WNW (300°) 15.0mph 10°C 5°C
5/06/20 10:50 EGYD 050950Z 30012KT 9999 SCT023 BKN060 10/05 Q0995 TEMPO 6000 SHRA RMK WHT TEMPO WHT WNW (300°) 13.8mph 10°C 5°C
5/06/20 09:50 EGYD 050850Z 32012KT 9999 SCT015 SCT035 BKN250 09/06 Q0995 TEMPO FEW018 RMK WHT TEMPO BLU NW (320°) 13.8mph 9°C 6°C
5/06/20 08:50 EGYD 050750Z 33009KT 9999 FEW010 SCT012 BKN032 08/06 Q0994 BECMG SCT015 RMK GRN BECMG WHT NNW (330°) 10.4mph 8°C 6°C
5/06/20 08:28 EGYD 050728Z 35009KT 9999 FEW004 SCT010 BKN032 08/07 Q0994 BECMG FEW010 BKN032 RMK GRN BECMG BLU N (350°) 10.4mph 8°C 7°C
5/06/20 07:50 EGYD 050650Z 35010KT 7000 RA FEW004 BKN006 OVC011 07/06 Q0994 BECMG 9999 NSW FEW010 BKN015 RMK YLO1 BECMG WHT RA N (350°) 11.5mph 7°C 6°C
5/06/20 06:50 EGYD 050550Z 35011KT 7000 RA BKN006 OVC010 08/06 Q0994 TEMPO 9999 -RA FEW005 BKN010 RMK YLO1 TEMPO GRN RA N (350°) 12.7mph 8°C 6°C
5/06/20 05:50 EGYD 050450Z AUTO 33013KT 9999 // BKN006/// 09/07 Q0993 NNW (330°) 15.0mph 9°C 7°C
5/06/20 04:50 EGYD 050350Z AUTO 27012KT 9999 // BKN022/// SCT060/// 10/07 Q0993 W (270°) 13.8mph 10°C 7°C
5/06/20 03:50 EGYD 050250Z AUTO 26011KT 9999 // SCT031/// BKN050/// BKN150/// 10/07 Q0994 W (260°) 12.7mph 10°C 7°C
5/06/20 02:50 EGYD 050150Z AUTO 26010KT 9999 // FEW049/// BKN150/// 09/07 Q0994 W (260°) 11.5mph 9°C 7°C
5/06/20 01:50 EGYD 050050Z AUTO 26011KT 9999 // SCT039/// BKN150/// 10/08 Q0995 W (260°) 12.7mph 10°C 8°C
5/06/20 00:50 EGYD 042350Z AUTO 26010KT 9999 // FEW060/// BKN150/// 10/08 Q0996 W (260°) 11.5mph 10°C 8°C
4/06/20 23:50 EGYD 042250Z AUTO 24008KT 9999 // BKN043/// BKN160/// 10/09 Q0997 WSW (240°) 9.2mph 10°C 9°C
4/06/20 22:50 EGYD 042150Z AUTO 22004KT 9999 // BKN050/// BKN160/// 09/08 Q0998 SW (220°) 4.6mph 9°C 8°C
4/06/20 21:50 EGYD 042050Z AUTO 21005KT 9999 // SCT031/// SCT043/// 09/08 Q0998 SSW (210°) 5.8mph 9°C 8°C
4/06/20 20:50 EGYD 041950Z AUTO 20005KT 9999 // BKN039/// BKN050/// 10/09 Q0999 SSW (200°) 5.8mph 10°C 9°C
4/06/20 19:50 EGYD 041850Z AUTO 27005KT 6000 // FEW036/// BKN043/// 10/09 Q0999 W (270°) 5.8mph 10°C 9°C
4/06/20 18:50 EGYD 041750Z AUTO 34003KT 9999 // SCT026/// SCT032/// 12/08 Q1000 NNW (340°) 3.5mph 12°C 8°C
4/06/20 17:50 EGYD 041650Z AUTO 28007KT 9999 // BKN042/// BKN050/// 13/06 Q1000 W (280°) 8.1mph 13°C 6°C
4/06/20 16:50 EGYD 041550Z AUTO 25007KT 9999 // BKN040/// 12/06 Q1000 WSW (250°) 8.1mph 12°C 6°C
4/06/20 15:50 EGYD 041450Z 25007KT 9999 FEW028 SCT060 BKN100 13/06 Q1001 TEMPO -SHRA SCT018 RMK BLU TEMPO WHT WSW (250°) 8.1mph 13°C 6°C
4/06/20 14:50 EGYD 041350Z 29006KT 9999 FEW018 BKN060 12/05 Q1002 TEMPO -SHRA SCT018 RMK BLU TEMPO WHT WNW (290°) 6.9mph 12°C 5°C
4/06/20 13:50 EGYD 041250Z 32007KT 9999 FEW028 BKN045 11/05 Q1002 NOSIG RMK BLU BLU NW (320°) 8.1mph 11°C 5°C
4/06/20 12:50 EGYD 041150Z 32009KT 9999 FEW028 BKN040 11/05 Q1003 TEMPO -SHRA SCT018 RMK BLU TEMPO WHT NW (320°) 10.4mph 11°C 5°C
4/06/20 11:50 EGYD 041050Z 31008KT 9999 FEW026 BKN040 11/05 Q1003 NOSIG RMK BLU BLU NW (310°) 9.2mph 11°C 5°C
4/06/20 10:50 EGYD 040950Z 33010KT 9999 FEW024 BKN055 BKN130 11/05 Q1003 BLU NOSIG RMK BLU BLU NNW (330°) 11.5mph 11°C 5°C
4/06/20 09:50 EGYD 040850Z 32009KT 9999 FEW018 BKN130 11/06 Q1004 NOSIG RMK BLU BLU NW (320°) 10.4mph 11°C 6°C
4/06/20 08:50 EGYD 040750Z 31010KT 9999 FEW014 BKN130 10/06 Q1004 NOSIG RMK BLU BLU NW (310°) 11.5mph 10°C 6°C
4/06/20 07:50 EGYD 040650Z 33009KT 9999 SCT010 SCT060 BKN140 09/07 Q1005 TEMPO FEW010 SCT060 RMK GRN TEMPO BLU NNW (330°) 10.4mph 9°C 7°C
4/06/20 06:50 EGYD 040550Z 33010KT 9999 FEW008 BKN060 BKN140 09/07 Q1005 NOSIG RMK BLU BLU NNW (330°) 11.5mph 9°C 7°C
4/06/20 05:50 EGYD 040450Z AUTO 33011KT 9999 // BKN060/// 09/07 Q1006 NNW (330°) 12.7mph 9°C 7°C
4/06/20 04:50 EGYD 040350Z AUTO 33010KT 9999 // FEW032/// BKN060/// 09/08 Q1005 NNW (330°) 11.5mph 9°C 8°C
4/06/20 03:50 EGYD 040250Z AUTO 33011KT 9999 // FEW008/// BKN043/// 09/08 Q1006 NNW (330°) 12.7mph 9°C 8°C
4/06/20 02:50 EGYD 040150Z AUTO 33012KT 9999 // BKN006/// SCT013/// 09/08 Q1006 NNW (330°) 13.8mph 9°C 8°C
4/06/20 01:50 EGYD 040050Z AUTO 33012KT 9999 // FEW014/// SCT025/// BKN050/// 09/07 Q1007 NNW (330°) 13.8mph 9°C 7°C
4/06/20 00:50 EGYD 032350Z AUTO 34011KT 9999 // FEW016/// BKN050/// 10/07 Q1008 NNW (340°) 12.7mph 10°C 7°C
3/06/20 23:50 EGYD 032250Z AUTO 34011KT 9999 // BKN026/// BKN045/// 10/07 Q1008 NNW (340°) 12.7mph 10°C 7°C
3/06/20 22:50 EGYD 032150Z AUTO 34010KT 9999 // BKN024/// BKN039/// 10/07 Q1009 NNW (340°) 11.5mph 10°C 7°C
3/06/20 21:50 EGYD 032050Z AUTO 36013KT 9999 // BKN015/// SCT040/// 10/08 Q1009 N (360°) 15.0mph 10°C 8°C
3/06/20 20:50 EGYD 031950Z AUTO 36015KT 9999 // OVC010/// 10/08 Q1009 N (360°) 17.3mph 10°C 8°C
3/06/20 19:50 EGYD 031850Z AUTO 36013KT 9999 // OVC011/// 11/09 Q1010 N (360°) 15.0mph 11°C 9°C
3/06/20 18:50 EGYD 031750Z AUTO 36014G24KT 9999 // BKN008/// BKN015/// 11/10 Q1010 N (360°) 16.1mph 27.6mph 11°C 10°C
3/06/20 17:50 EGYD 031650Z AUTO 36015KT 9999 // FEW008/// BKN017/// 11/10 Q1010 N (360°) 17.3mph 11°C 10°C
3/06/20 16:50 EGYD 031550Z 01013KT 9999 -RA SCT010 OVC022 12/11 Q1010 RMK GRN -RA N (10°) 15.0mph 12°C 11°C
3/06/20 15:50 EGYD 031450Z 36014KT 9999 -RA FEW009 SCT015 OVC021 13/11 Q1010 TEMPO SCT009 RMK BLU TEMPO GRN -RA N (360°) 16.1mph 13°C 11°C
3/06/20 14:50 EGYD 031350Z 03011KT 9999 -RA FEW014 BKN038 OVC070 14/11 Q1010 TEMPO SCT014 RMK BLU TEMPO GRN -RA NNE (30°) 12.7mph 14°C 11°C
3/06/20 13:50 EGYD 031250Z 03012KT 9999 -RA SCT016 OVC039 14/11 Q1010 TEMPO FEW016 OVC038 RMK WHT TEMPO BLU -RA NNE (30°) 13.8mph 14°C 11°C
3/06/20 13:14 EGYD 031214Z 03012KT 9999 SCT016 OVC023 14/10 Q1010 TEMPO SCT014 RMK WHT TEMPO GRN NNE (30°) 13.8mph 14°C 10°C
3/06/20 11:50 EGYD 031050Z 02013KT 9999 -RA BKN013 OVC023 14/11 Q1010 TEMPO FEW013 OVC023 RMK GRN TEMPO WHT -RA NNE (20°) 15.0mph 14°C 11°C
3/06/20 09:50 EGYD 030850Z 02013KT 9999 RA SCT010 OVC043 13/11 Q1010 TEMPO 6000 RMK GRN TEMPO GRN RA NNE (20°) 15.0mph 13°C 11°C
3/06/20 09:10 EGYD 030810Z 02012KT 9999 -RA BKN008 OVC040 13/12 Q1010 TEMPO BKN006 RMK GRN TEMPO YLO1 -RA NNE (20°) 13.8mph 13°C 12°C
3/06/20 08:23 EGYD 030723Z 01011KT 9999 -RA BKN006 BKN060 OVC100 13/12 Q1010 TEMPO FEW006 BKN010 RMK YLO1 TEMPO GRN -RA N (10°) 12.7mph 13°C 12°C
3/06/20 07:50 EGYD 030650Z 36010KT 9999 FEW006 SCT007 BKN060 13/12 Q1010 TEMPO SCT006 RMK GRN TEMPO YLO1 N (360°) 11.5mph 13°C 12°C
3/06/20 06:50 EGYD 030550Z 35008KT 9999 -RA FEW009 SCT050 OVC070 13/11 Q1011 TEMPO 6000 RA BKN009 RMK BLU TEMPO GRN -RA N (350°) 9.2mph 13°C 11°C
3/06/20 05:50 EGYD 030450Z AUTO 33004KT 9999 // OVC070/// 13/09 Q1011 NNW (330°) 4.6mph 13°C 9°C
3/06/20 04:50 EGYD 030350Z AUTO 36005KT 9999 // OVC090/// 13/08 Q1011 N (360°) 5.8mph 13°C 8°C
3/06/20 03:50 EGYD 030250Z AUTO 05002KT 9999 // BKN070/// 13/08 Q1011 NE (50°) 2.3mph 13°C 8°C
3/06/20 02:50 EGYD 030150Z AUTO 02004KT 9999 // BKN070/// 13/08 Q1011 NNE (20°) 4.6mph 13°C 8°C
3/06/20 01:50 EGYD 030050Z AUTO 36002KT 9999 // OVC120/// 13/10 Q1012 N (360°) 2.3mph 13°C 10°C
3/06/20 00:50 EGYD 022350Z AUTO 07003KT 9999 // OVC130/// 13/10 Q1013 ENE (70°) 3.5mph 13°C 10°C
2/06/20 23:50 EGYD 022250Z AUTO 09002KT 9999 // BKN130/// 14/10 Q1014 E (90°) 2.3mph 14°C 10°C
2/06/20 22:50 EGYD 022150Z AUTO 13003KT 9999 // BKN140/// 14/09 Q1014 SE (130°) 3.5mph 14°C 9°C
2/06/20 21:50 EGYD 022050Z AUTO 13004KT 9999 // BKN140/// 15/09 Q1014 SE (130°) 4.6mph 15°C 9°C
2/06/20 20:50 EGYD 021950Z AUTO 14006KT 9999 // SCT150/// 17/09 Q1014 SE (140°) 6.9mph 17°C 9°C
2/06/20 19:50 EGYD 021850Z AUTO 12008KT 9999 // SCT160/// 20/09 Q1015 ESE (120°) 9.2mph 20°C 9°C
2/06/20 18:50 EGYD 021750Z AUTO 13007KT 9999 // FEW170/// 21/09 Q1015 SE (130°) 8.1mph 21°C 9°C
2/06/20 17:50 EGYD 021650Z AUTO 31008KT 9999 // NCD 23/05 Q1016 NW (310°) 9.2mph 23°C 5°C
2/06/20 16:50 EGYD 021550Z AUTO 33006KT 9999 // NCD 23/05 Q1016 NNW (330°) 6.9mph 23°C 5°C
2/06/20 15:50 EGYD 021450Z 03004KT CAVOK 23/06 Q1017 NOSIG RMK BLU BLU NNE (30°) 4.6mph 23°C 6°C
2/06/20 14:50 EGYD 021350Z 35005KT CAVOK 22/06 Q1018 NOSIG RMK BLU BLU N (350°) 5.8mph 22°C 6°C
2/06/20 13:50 EGYD 021250Z 02005KT CAVOK 22/07 Q1019 NOSIG RMK BLU BLU NNE (20°) 5.8mph 22°C 7°C